Gulkana Airport Gulkana US
ICAO: PAGK
IATA:
Category: Medium
Scheduled Services:

Elevation: 1586 ft
TransAlt. 18000 ft.

Airport Communications:
ASOS:134.85
ANCHORAGE CNTR:119.5
CTAF:122.9
KENAI RDO:122.2
TWEB:115.6

PAGK Zoom In..

Runways:

(A) RW 15 length 5001 ft width 100 ft
---- / hdg 148

(B) RW 33 length 5001 ft width 100 ft
---- / hdg 328

Location; PAGK
Day. 24 / Time. 01.53 Zulu
* Altimeter: 29.79
* Temperature: -22° c. 7.6°f.
* Wind from: 000° Speed 00 kn.
Dewpoint: -24° c.
Visibility: 9 Statute Miles.
Clouds: Few 11000 ft.

PAGK 240153Z AUTO 00000KT 9SM FEW110 M22/M24 A2979 RMK AO2 SLP157 T12221239 TSNO


Wind - Calm.

YouTube Music Video
 
jpsmedia.com for Web Design  worldairports.se 2018   terms of use